Time;durP1;ratioP1;P1;durP2;ratioP2;P2;SDS_P1;SDS_P2;PMS_P1;PMS_P2;Temp;Humidity;BMP_temperature;BMP_pressure;BME280_temperature;BME280_humidity;BME280_pressure;Samples;Min_cycle;Max_cycle;Signal;HPM_P1;HPM_P2
2022/04/01 00:01:45;;;;;;;4.78;3.33;;;4.50;99.90;;;;;;5007283;28;20228;-81
2022/04/01 00:04:19;;;;;;;4.38;3.38;;;4.40;99.90;;;;;;5007289;28;20331;-81
2022/04/01 00:06:46;;;;;;;6.50;3.80;;;4.40;99.90;;;;;;5009813;28;20216;-80
2022/04/01 00:09:15;;;;;;;7.55;3.97;;;5.00;99.90;;;;;;5013888;28;20224;-80
2022/04/01 00:11:42;;;;;;;5.50;3.75;;;4.10;99.90;;;;;;5013561;28;20216;-80
2022/04/01 00:14:09;;;;;;;4.15;3.38;;;4.60;99.90;;;;;;5013740;28;20209;-80
2022/04/01 00:16:39;;;;;;;4.53;3.53;;;3.70;99.90;;;;;;5013204;28;20268;-80
2022/04/01 00:19:06;;;;;;;4.35;3.90;;;4.20;99.90;;;;;;5013979;28;20228;-79
2022/04/01 00:21:34;;;;;;;11.32;4.78;;;4.00;99.90;;;;;;5017289;28;20229;-79
2022/04/01 00:24:01;;;;;;;8.02;5.45;;;3.90;1.00;;;;;;5015961;28;20208;-80
2022/04/01 00:26:29;;;;;;;3.95;3.45;;;4.10;99.90;;;;;;5014150;28;20197;-81
2022/04/01 00:29:14;;;;;;;8.10;4.70;;;4.10;99.90;;;;;;5034777;23;20259;-81
2022/04/01 00:31:58;;;;;;;4.97;4.00;;;4.00;99.90;;;;;;5005961;28;20220;-81
2022/04/01 00:34:52;;;;;;;4.63;4.22;;;4.20;1.00;;;;;;4989423;28;20204;-82
2022/04/01 00:37:20;;;;;;;5.38;4.32;;;4.00;1.00;;;;;;4902784;29;20232;-82
2022/04/01 00:39:52;;;;;;;5.07;3.67;;;3.70;99.90;;;;;;4938676;28;20418;-81
2022/04/01 00:45:00;;;;;;;7.07;5.75;;;3.80;99.90;;;;;;5035999;28;20212;-83
2022/04/01 00:47:27;;;;;;;7.45;3.92;;;3.80;99.90;;;;;;5035574;28;20204;-84
2022/04/01 00:49:55;;;;;;;7.30;4.05;;;;;;;;;;5034399;28;20211;-86
2022/04/01 00:52:25;;;;;;;4.47;3.95;;;4.00;1.00;;;;;;5032963;28;20208;-84
2022/04/01 00:54:52;;;;;;;4.45;3.70;;;3.70;99.90;;;;;;5024881;28;20188;-85
2022/04/01 00:57:19;;;;;;;5.30;3.67;;;4.60;99.90;;;;;;5025723;28;20259;-84
2022/04/01 00:59:47;;;;;;;4.90;3.85;;;3.80;99.90;;;;;;5029426;28;20216;-85
2022/04/01 01:02:16;;;;;;;5.57;4.60;;;3.70;1.00;;;;;;5026353;28;20303;-86
2022/04/01 01:04:44;;;;;;;4.35;3.95;;;3.70;99.90;;;;;;5026646;28;20571;-86
2022/04/01 01:07:10;;;;;;;5.43;4.18;;;3.70;99.90;;;;;;5025852;28;20263;-84
2022/04/01 01:09:37;;;;;;;5.43;3.88;;;3.60;99.90;;;;;;5029321;28;20204;-86
2022/04/01 01:12:06;;;;;;;4.82;3.95;;;3.70;99.90;;;;;;5026611;28;20622;-86
2022/04/01 01:14:35;;;;;;;5.70;4.05;;;3.60;99.90;;;;;;5027602;28;20232;-85
2022/04/01 01:17:03;;;;;;;4.50;3.45;;;3.60;99.90;;;;;;5031526;28;20227;-86
2022/04/01 01:19:31;;;;;;;5.65;4.55;;;3.50;99.90;;;;;;5027652;28;20204;-87
2022/04/01 01:21:59;;;;;;;4.57;3.67;;;3.50;99.90;;;;;;5025174;28;20204;-86
2022/04/01 01:24:31;;;;;;;4.65;3.75;;;3.50;99.90;;;;;;5025742;28;20369;-84
2022/04/01 01:26:58;;;;;;;5.25;3.60;;;3.50;99.90;;;;;;5026153;28;20184;-86
2022/04/01 01:29:27;;;;;;;4.10;3.40;;;3.50;99.90;;;;;;5025684;28;20652;-85
2022/04/01 01:31:55;;;;;;;8.75;3.40;;;3.40;99.90;;;;;;5024864;28;20212;-86
2022/04/01 01:34:22;;;;;;;5.70;4.10;;;3.40;99.90;;;;;;5025052;28;20220;-85
2022/04/01 01:36:50;;;;;;;4.07;3.67;;;3.50;99.90;;;;;;5024794;28;20590;-85
2022/04/01 01:39:17;;;;;;;4.13;3.72;;;3.70;99.90;;;;;;5027570;28;20188;-84
2022/04/01 01:41:45;;;;;;;4.35;3.83;;;3.40;99.90;;;;;;5026541;28;20208;-87
2022/04/01 01:44:13;;;;;;;7.22;3.65;;;3.40;99.90;;;;;;5025062;28;20278;-85
2022/04/01 01:46:40;;;;;;;4.90;3.45;;;3.60;99.90;;;;;;5025490;28;20211;-85
2022/04/01 01:49:07;;;;;;;4.10;3.70;;;3.30;99.90;;;;;;5025271;28;20219;-84
2022/04/01 01:57:04;;;;;;;4.35;3.58;;;3.40;99.90;;;;;;5026635;28;20232;-85
2022/04/01 01:59:31;;;;;;;4.70;4.20;;;3.30;99.90;;;;;;5025325;28;20235;-86
2022/04/01 02:01:58;;;;;;;5.63;4.22;;;3.30;99.90;;;;;;5024798;28;20215;-86
2022/04/01 02:04:25;;;;;;;3.97;3.60;;;2.60;99.90;;;;;;5024973;28;20275;-85
2022/04/01 02:06:52;;;;;;;5.75;3.88;;;3.20;99.90;;;;;;5025051;28;20207;-86
2022/04/01 02:09:18;;;;;;;6.85;3.92;;;3.20;99.90;;;;;;5026937;28;20204;-85
2022/04/01 02:11:45;;;;;;;4.57;3.88;;;3.30;99.90;;;;;;5031593;28;20204;-85
2022/04/01 02:14:14;;;;;;;6.72;4.15;;;3.10;99.90;;;;;;5037211;28;20212;-83
2022/04/01 02:16:43;;;;;;;5.80;3.45;;;3.90;99.90;;;;;;5039863;28;20211;-85
2022/04/01 02:19:10;;;;;;;5.72;4.20;;;5.00;99.90;;;;;;5040193;28;20195;-85
2022/04/01 02:21:37;;;;;;;4.68;3.70;;;3.00;99.90;;;;;;5039462;28;20278;-85
2022/04/01 02:24:06;;;;;;;8.13;4.22;;;3.20;99.90;;;;;;5036225;28;20232;-86
2022/04/01 02:26:34;;;;;;;12.95;4.18;;;3.00;99.90;;;;;;5025475;28;20663;-85
2022/04/01 02:29:03;;;;;;;6.32;3.97;;;3.00;99.90;;;;;;5023615;28;20208;-84
2022/04/01 02:31:31;;;;;;;3.17;2.85;;;3.00;99.90;;;;;;5034128;28;20200;-83
2022/04/01 02:33:59;;;;;;;8.18;4.35;;;2.90;99.90;;;;;;5033581;28;20225;-87
2022/04/01 02:36:25;;;;;;;4.68;4.20;;;2.90;99.90;;;;;;5032261;28;20211;-86
2022/04/01 02:38:53;;;;;;;4.82;4.18;;;2.90;99.90;;;;;;5026073;28;20205;-85
2022/04/01 02:41:21;;;;;;;7.53;3.80;;;3.00;99.90;;;;;;5034783;28;20220;-84
2022/04/01 02:43:48;;;;;;;5.90;4.30;;;2.50;99.90;;;;;;5038192;28;20212;-86
2022/04/01 02:46:15;;;;;;;5.00;4.03;;;2.90;99.90;;;;;;5034673;28;20212;-84
2022/04/01 02:48:42;;;;;;;5.05;4.53;;;2.80;99.90;;;;;;5028600;28;20196;-86
2022/04/01 02:51:09;;;;;;;4.63;3.85;;;2.80;99.90;;;;;;5028676;28;20208;-86
2022/04/01 02:53:36;;;;;;;6.72;4.00;;;2.80;99.90;;;;;;5025025;28;20567;-85
2022/04/01 02:56:02;;;;;;;7.68;4.68;;;2.90;99.90;;;;;;5024368;28;20208;-85
2022/04/01 02:58:29;;;;;;;4.88;4.10;;;2.70;99.90;;;;;;5025398;28;20220;-87
2022/04/01 03:00:56;;;;;;;7.38;4.53;;;2.70;99.90;;;;;;5025259;28;20299;-85
2022/04/01 03:03:22;;;;;;;6.38;4.00;;;2.60;99.90;;;;;;5026336;28;20232;-87
2022/04/01 03:05:50;;;;;;;9.25;4.03;;;2.70;99.90;;;;;;5026770;28;20192;-86
2022/04/01 03:08:17;;;;;;;5.18;3.88;;;2.70;99.90;;;;;;5035516;28;20210;-84
2022/04/01 03:10:44;;;;;;;6.72;4.32;;;2.80;99.90;;;;;;5035909;28;20280;-84
2022/04/01 03:13:10;;;;;;;7.25;3.85;;;2.60;99.90;;;;;;5023234;28;20288;-86
2022/04/01 03:15:38;;;;;;;6.30;4.30;;;2.40;1.00;;;;;;5026871;28;20438;-85
2022/04/01 03:18:06;;;;;;;4.82;4.35;;;2.60;99.90;;;;;;5029970;28;20311;-85
2022/04/01 03:20:35;;;;;;;6.07;4.07;;;2.50;99.90;;;;;;5030595;28;20215;-86
2022/04/01 03:23:07;;;;;;;5.43;4.70;;;2.60;99.90;;;;;;5030575;28;20291;-87
2022/04/01 03:25:34;;;;;;;5.13;4.55;;;2.60;99.90;;;;;;5028101;28;20184;-86
2022/04/01 03:28:02;;;;;;;4.95;3.95;;;1.80;99.90;;;;;;5030540;28;20489;-87
2022/04/01 03:30:32;;;;;;;5.38;4.00;;;2.20;99.90;;;;;;5030212;28;20642;-87
2022/04/01 03:33:00;;;;;;;5.78;4.07;;;2.50;99.90;;;;;;5030899;28;20224;-87
2022/04/01 03:35:27;;;;;;;4.13;3.67;;;2.40;99.90;;;;;;5031165;28;20235;-87
2022/04/01 03:37:55;;;;;;;4.55;4.15;;;2.40;99.90;;;;;;5029431;28;20318;-86
2022/04/01 03:40:23;;;;;;;5.78;3.78;;;2.40;99.90;;;;;;5026776;28;20224;-86
2022/04/01 03:42:51;;;;;;;4.85;3.97;;;2.40;99.90;;;;;;5029341;28;20243;-86
2022/04/01 03:45:18;;;;;;;4.88;4.13;;;2.30;99.90;;;;;;5031752;28;20204;-87
2022/04/01 03:47:53;;;;;;;4.95;3.88;;;2.30;99.90;;;;;;5030072;28;20204;-87
2022/04/01 03:50:28;;;;;;;4.63;3.97;;;2.30;99.90;;;;;;5028865;28;20263;-86
2022/04/01 03:53:02;;;;;;;10.40;4.78;;;2.30;99.90;;;;;;5028965;28;20726;-87
2022/04/01 03:55:32;;;;;;;5.10;4.35;;;1.80;99.90;;;;;;5029410;28;20267;-86
2022/04/01 03:58:03;;;;;;;5.30;4.50;;;2.30;1.00;;;;;;5035978;28;20206;-86
2022/04/01 04:00:30;;;;;;;4.80;4.25;;;2.10;99.90;;;;;;5037320;28;20169;-85
2022/04/01 04:02:58;;;;;;;5.88;4.13;;;1.60;99.90;;;;;;5034367;28;20220;-87
2022/04/01 04:05:27;;;;;;;8.45;4.63;;;2.10;99.90;;;;;;5033267;28;20231;-88
2022/04/01 04:07:56;;;;;;;4.93;4.43;;;2.10;1.00;;;;;;5032241;28;20200;-86
2022/04/01 04:10:27;;;;;;;6.68;5.90;;;2.20;99.90;;;;;;5031726;28;20208;-86
2022/04/01 04:12:59;;;;;;;5.10;4.35;;;2.10;1.00;;;;;;5035452;28;20210;-86
2022/04/01 04:15:27;;;;;;;7.70;5.05;;;1.20;99.90;;;;;;5030233;28;20193;-87
2022/04/01 04:17:59;;;;;;;5.40;4.32;;;2.30;1.00;;;;;;5032642;28;20227;-88
2022/04/01 04:20:34;;;;;;;8.38;4.40;;;2.20;99.90;;;;;;5033079;28;20200;-85
2022/04/01 04:23:10;;;;;;;6.78;5.30;;;2.10;99.90;;;;;;5030158;28;20224;-87
2022/04/01 04:25:39;;;;;;;11.57;6.35;;;2.10;99.90;;;;;;5033087;28;20280;-86
2022/04/01 04:28:12;;;;;;;5.53;4.38;;;2.10;99.90;;;;;;5034634;28;20190;-87
2022/04/01 04:30:49;;;;;;;7.13;3.58;;;2.20;1.00;;;;;;5037297;28;20188;-88
2022/04/01 04:33:18;;;;;;;9.15;4.85;;;2.20;99.90;;;;;;5035239;28;20307;-86
2022/04/01 04:35:50;;;;;;;7.47;4.00;;;3.00;99.90;;;;;;5032385;28;20276;-86
2022/04/01 04:38:20;;;;;;;7.03;4.25;;;1.90;1.00;;;;;;5032965;28;20215;-84
2022/04/01 04:40:47;;;;;;;5.75;4.80;;;1.60;99.90;;;;;;5035245;28;20204;-83
2022/04/01 04:43:18;;;;;;;17.45;4.53;;;2.10;99.90;;;;;;5034250;28;20220;-85
2022/04/01 04:45:47;;;;;;;5.47;3.90;;;2.00;99.90;;;;;;5034482;28;20193;-83
2022/04/01 04:48:14;;;;;;;5.85;4.53;;;2.00;99.90;;;;;;5027788;28;20235;-83
2022/04/01 04:50:47;;;;;;;7.65;4.82;;;2.00;99.90;;;;;;5021511;28;20212;-83
2022/04/01 04:53:14;;;;;;;4.20;3.65;;;2.00;99.90;;;;;;5021600;28;20224;-85
2022/04/01 04:55:41;;;;;;;6.68;4.28;;;1.90;99.90;;;;;;5021206;28;20255;-84
2022/04/01 04:58:10;;;;;;;4.68;4.13;;;2.00;99.90;;;;;;5021903;28;20224;-83
2022/04/01 05:00:41;;;;;;;6.10;3.90;;;2.00;99.90;;;;;;5021128;28;20219;-87
2022/04/01 05:03:25;;;;;;;4.10;3.17;;;2.00;99.90;;;;;;5021503;28;20224;-85
2022/04/01 05:05:54;;;;;;;9.35;3.90;;;2.00;99.90;;;;;;5023799;28;20220;-85
2022/04/01 05:08:35;;;;;;;4.70;3.95;;;2.00;99.90;;;;;;5024872;28;20276;-86
2022/04/01 05:11:06;;;;;;;12.65;4.53;;;1.70;99.90;;;;;;5024013;28;20216;-85
2022/04/01 05:13:45;;;;;;;5.28;4.00;;;2.00;99.90;;;;;;5023394;28;20221;-84
2022/04/01 05:16:26;;;;;;;7.75;4.28;;;2.00;99.90;;;;;;5025060;28;20219;-85
2022/04/01 05:19:02;;;;;;;9.07;4.63;;;2.00;99.90;;;;;;5030070;28;20239;-86
2022/04/01 05:21:38;;;;;;;4.50;3.55;;;2.00;99.90;;;;;;5028130;28;20233;-85
2022/04/01 05:24:09;;;;;;;4.95;3.75;;;2.00;99.90;;;;;;5026771;28;20234;-87
2022/04/01 05:26:41;;;;;;;5.40;3.20;;;2.10;99.90;;;;;;5030210;28;20242;-85
2022/04/01 05:29:13;;;;;;;6.20;3.78;;;2.10;99.90;;;;;;5040638;28;20215;-85
2022/04/01 05:31:46;;;;;;;8.00;4.75;;;1.50;99.90;;;;;;5038348;28;20212;-84
2022/04/01 05:34:20;;;;;;;5.63;3.60;;;1.90;99.90;;;;;;5034309;28;20224;-84
2022/04/01 05:36:49;;;;;;;4.00;3.60;;;1.90;1.00;;;;;;5028878;28;20271;-84
2022/04/01 05:39:16;;;;;;;4.38;3.35;;;1.80;1.00;;;;;;5025123;28;20225;-84
2022/04/01 05:41:45;;;;;;;5.80;4.05;;;2.00;99.90;;;;;;5025550;28;20215;-85
2022/04/01 05:44:13;;;;;;;10.52;3.83;;;2.00;99.90;;;;;;5023543;28;20236;-84
2022/04/01 05:46:41;;;;;;;5.88;3.55;;;2.50;99.90;;;;;;5024444;28;20280;-84
2022/04/01 05:49:09;;;;;;;6.35;3.72;;;2.10;99.90;;;;;;5024738;28;20200;-83
2022/04/01 05:51:37;;;;;;;6.25;3.80;;;1.80;99.90;;;;;;5025331;28;20201;-86
2022/04/01 05:54:05;;;;;;;4.90;3.55;;;2.10;99.90;;;;;;5028242;28;20224;-85
2022/04/01 05:56:35;;;;;;;10.57;4.25;;;1.90;99.90;;;;;;5027990;28;20208;-85
2022/04/01 05:59:01;;;;;;;11.15;3.97;;;1.70;99.90;;;;;;5025825;28;20220;-86
2022/04/01 06:01:37;;;;;;;7.80;3.78;;;1.60;99.90;;;;;;5026941;28;20258;-85
2022/04/01 06:04:40;;;;;;;9.10;3.90;;;2.30;99.90;;;;;;5026249;28;20224;-85
2022/04/01 06:07:10;;;;;;;7.78;3.47;;;2.00;99.90;;;;;;5026214;28;20196;-86
2022/04/01 06:09:44;;;;;;;3.78;3.42;;;2.00;99.90;;;;;;5024941;28;20188;-86
2022/04/01 06:12:18;;;;;;;5.13;3.70;;;1.90;99.90;;;;;;5025237;28;20239;-87
2022/04/01 06:14:54;;;;;;;4.00;3.58;;;2.00;99.90;;;;;;5023772;28;20192;-86
2022/04/01 06:17:36;;;;;;;4.50;4.05;;;1.50;99.90;;;;;;5027472;28;20192;-86
2022/04/01 06:20:07;;;;;;;4.95;3.30;;;2.00;99.90;;;;;;5026532;28;20196;-86
2022/04/01 06:22:41;;;;;;;4.43;3.88;;;2.10;99.90;;;;;;5026008;28;20315;-85
2022/04/01 06:25:13;;;;;;;6.63;4.82;;;2.10;99.90;;;;;;5026663;28;20188;-86
2022/04/01 06:27:44;;;;;;;5.68;3.45;;;2.10;99.90;;;;;;5026196;28;20216;-86
2022/04/01 06:30:12;;;;;;;2.95;2.50;;;1.50;99.90;;;;;;5025798;28;20632;-85
2022/04/01 06:32:51;;;;;;;4.15;3.85;;;2.10;99.90;;;;;;5032142;28;20221;-84
2022/04/01 06:35:25;;;;;;;6.00;4.20;;;2.40;1.00;;;;;;5034357;28;20200;-86
2022/04/01 06:37:58;;;;;;;4.38;3.45;;;2.20;1.00;;;;;;5030402;28;20209;-86
2022/04/01 06:40:29;;;;;;;4.65;3.58;;;2.20;99.90;;;;;;5029159;28;20204;-84
2022/04/01 07:08:31;;;;;;;6.88;2.95;;;2.80;1.00;;;;;;4946577;28;20195;-80
2022/04/01 07:33:34;;;;;;;4.22;3.28;;;3.30;99.90;;;;;;4862489;29;20216;-80
2022/04/01 07:53:44;;;;;;;4.03;3.20;;;3.70;1.00;;;;;;4862133;29;20700;-80
2022/04/01 08:02:47;;;;;;;6.72;2.97;;;4.10;99.90;;;;;;4906676;28;20233;-79
2022/04/01 08:17:27;;;;;;;6.32;3.33;;;4.30;99.90;;;;;;5010114;28;20232;-80
2022/04/01 08:20:34;;;;;;;4.93;2.88;;;4.40;99.90;;;;;;5028638;28;20224;-80
2022/04/01 08:23:37;;;;;;;;;;;;;;;;;;;;;
2022/04/01 08:26:05;;;;;;;15.50;3.55;;;;;;;;;;5021790;28;20267;-79
2022/04/01 08:28:33;;;;;;;4.20;2.40;;;4.40;99.90;;;;;;5024724;28;20200;-79
2022/04/01 08:31:00;;;;;;;8.05;3.00;;;4.50;99.90;;;;;;5020142;28;20204;-79
2022/04/01 08:33:27;;;;;;;3.67;3.05;;;4.70;99.90;;;;;;5016894;28;20274;-79
2022/04/01 08:35:54;;;;;;;5.60;2.60;;;4.60;99.90;;;;;;5017159;28;20239;-79
2022/04/01 08:38:21;;;;;;;4.18;2.40;;;4.60;99.90;;;;;;5020104;28;20200;-79
2022/04/01 08:40:48;;;;;;;3.97;2.67;;;4.50;99.90;;;;;;5022247;28;20208;-79
2022/04/01 08:43:24;;;;;;;3.83;3.00;;;4.70;99.90;;;;;;5022501;28;20228;-79
2022/04/01 08:45:52;;;;;;;3.40;2.53;;;4.80;99.90;;;;;;5022333;28;20199;-80
2022/04/01 08:48:19;;;;;;;2.97;2.67;;;4.90;99.90;;;;;;5027731;28;20200;-80
2022/04/01 08:50:46;;;;;;;20.52;4.25;;;4.80;1.00;;;;;;5022029;28;20212;-80
2022/04/01 08:53:14;;;;;;;3.17;2.38;;;5.00;99.90;;;;;;5022032;28;20220;-80
2022/04/01 08:55:46;;;;;;;4.30;2.40;;;5.00;99.90;;;;;;5023059;28;20211;-79
2022/04/01 08:58:13;;;;;;;5.78;2.65;;;5.00;99.90;;;;;;5022031;28;20207;-79
2022/04/01 09:00:39;;;;;;;4.55;2.78;;;5.10;99.90;;;;;;5028629;28;20219;-78
2022/04/01 09:03:11;;;;;;;10.55;3.50;;;5.00;99.90;;;;;;5033134;28;20235;-78
2022/04/01 09:05:38;;;;;;;3.78;2.72;;;5.00;99.90;;;;;;5029299;28;20188;-79
2022/04/01 09:08:07;;;;;;;4.18;2.42;;;4.60;99.90;;;;;;5033163;28;20212;-79
2022/04/01 09:10:51;;;;;;;4.78;2.90;;;5.30;1.00;;;;;;5029473;28;20201;-81
2022/04/01 09:13:18;;;;;;;3.25;2.45;;;5.50;99.90;;;;;;5024425;28;20315;-80
2022/04/01 09:15:45;;;;;;;4.28;2.33;;;5.40;99.90;;;;;;5023397;28;20214;-80
2022/04/01 09:18:14;;;;;;;4.18;3.17;;;5.30;99.90;;;;;;5022054;28;20197;-80
2022/04/01 09:20:45;;;;;;;9.40;3.05;;;5.30;99.90;;;;;;5025936;28;20232;-80
2022/04/01 09:23:12;;;;;;;5.03;3.08;;;5.20;99.90;;;;;;5033233;28;20224;-81
2022/04/01 09:25:48;;;;;;;6.55;2.80;;;5.30;1.00;;;;;;5036869;28;20192;-80
2022/04/01 09:28:25;;;;;;;5.63;2.60;;;5.30;99.90;;;;;;5030239;28;20184;-79
2022/04/01 09:31:01;;;;;;;7.68;3.40;;;5.40;99.90;;;;;;5029815;28;20211;-79
2022/04/01 09:33:46;;;;;;;5.40;3.85;;;5.20;99.90;;;;;;5028666;28;20230;-79
2022/04/01 09:36:15;;;;;;;10.40;4.30;;;5.40;99.90;;;;;;5031782;28;20286;-78
2022/04/01 09:38:53;;;;;;;49.00;5.78;;;5.40;99.90;;;;;;5029694;28;20667;-78
2022/04/01 09:41:20;;;;;;;5.32;2.80;;;5.30;1.00;;;;;;5032334;28;20212;-79
2022/04/01 09:43:47;;;;;;;4.43;3.45;;;5.40;99.90;;;;;;5032980;28;20255;-79
2022/04/01 09:46:23;;;;;;;4.43;2.80;;;5.50;99.90;;;;;;5031030;28;20212;-79
2022/04/01 09:48:55;;;;;;;9.90;3.00;;;5.50;99.90;;;;;;5028953;28;20208;-79
2022/04/01 09:51:22;;;;;;;8.98;3.67;;;5.70;99.90;;;;;;5023342;28;20199;-79
2022/04/01 09:53:53;;;;;;;7.22;2.97;;;5.60;99.90;;;;;;5021115;28;20247;-79
2022/04/01 09:56:36;;;;;;;9.60;3.65;;;5.60;99.90;;;;;;5020218;28;20212;-79
2022/04/01 09:59:05;;;;;;;3.80;2.75;;;5.70;99.90;;;;;;5020733;28;20255;-79
2022/04/01 10:01:33;;;;;;;6.43;3.40;;;5.60;99.90;;;;;;5019095;28;20750;-79
2022/04/01 10:04:01;;;;;;;5.03;2.78;;;5.80;99.90;;;;;;5019903;28;20266;-79
2022/04/01 10:06:29;;;;;;;3.53;2.40;;;6.00;99.90;;;;;;5019634;28;20200;-78
2022/04/01 10:08:57;;;;;;;4.70;4.22;;;6.00;99.90;;;;;;5020418;28;20201;-78
2022/04/01 10:11:25;;;;;;;2.70;2.50;;;6.10;99.90;;;;;;5018930;28;20215;-78
2022/04/01 10:13:52;;;;;;;6.80;2.30;;;6.20;99.90;;;;;;5019182;28;20231;-79
2022/04/01 10:16:21;;;;;;;6.80;3.05;;;6.40;99.90;;;;;;5020428;28;20327;-78
2022/04/01 10:18:49;;;;;;;6.28;2.70;;;6.20;99.90;;;;;;5018342;28;20227;-79
2022/04/01 10:21:18;;;;;;;4.82;2.92;;;6.30;99.90;;;;;;5019039;28;20204;-80
2022/04/01 10:23:56;;;;;;;3.40;3.10;;;5.60;1.00;;;;;;5018167;28;20235;-79
2022/04/01 10:26:23;;;;;;;3.33;2.55;;;6.10;99.90;;;;;;5018719;28;20188;-79
2022/04/01 10:28:52;;;;;;;4.85;2.90;;;6.00;99.90;;;;;;5020048;28;20633;-79
2022/04/01 10:31:20;;;;;;;5.80;2.78;;;6.10;99.90;;;;;;5021229;28;20695;-79
2022/04/01 10:33:48;;;;;;;6.25;2.80;;;6.00;99.90;;;;;;5019342;28;20228;-78
2022/04/01 10:36:28;;;;;;;11.13;4.50;;;5.90;1.00;;;;;;5019363;28;20254;-78
2022/04/01 10:39:00;;;;;;;6.53;2.92;;;6.10;99.90;;;;;;5018972;28;20266;-79
2022/04/01 10:41:27;;;;;;;4.45;2.55;;;6.30;99.90;;;;;;5018729;28;20193;-79
2022/04/01 10:43:56;;;;;;;5.35;2.33;;;6.30;99.90;;;;;;5018579;28;20258;-78
2022/04/01 10:46:22;;;;;;;3.92;2.88;;;6.40;99.90;;;;;;5018955;28;20216;-79
2022/04/01 10:52:19;;;;;;;8.15;2.90;;;6.40;99.90;;;;;;5021152;28;20183;-79
2022/04/01 10:54:47;;;;;;;9.60;3.13;;;6.20;99.90;;;;;;5020401;28;20242;-78
2022/04/01 10:57:26;;;;;;;15.45;3.88;;;6.40;99.90;;;;;;5023295;28;20204;-78
2022/04/01 10:59:54;;;;;;;5.22;2.95;;;6.60;99.90;;;;;;5021622;28;20686;-78
2022/04/01 11:02:22;;;;;;;4.32;2.85;;;6.70;99.90;;;;;;5022107;28;20212;-79
2022/04/01 11:04:51;;;;;;;5.25;3.03;;;7.00;1.00;;;;;;5025802;28;20256;-79
2022/04/01 11:07:33;;;;;;;6.20;2.80;;;6.80;99.90;;;;;;5026411;28;20227;-79
2022/04/01 11:10:01;;;;;;;5.65;2.97;;;6.80;99.90;;;;;;5026902;28;20268;-79
2022/04/01 11:12:33;;;;;;;3.63;2.50;;;6.50;99.90;;;;;;5025349;28;20203;-78
2022/04/01 11:15:15;;;;;;;7.43;2.92;;;6.30;99.90;;;;;;5018125;28;20224;-78
2022/04/01 11:18:10;;;;;;;2.63;2.42;;;6.40;99.90;;;;;;5016936;28;20659;-79
2022/04/01 11:20:39;;;;;;;6.65;2.90;;;6.80;99.90;;;;;;5017871;28;20208;-80
2022/04/01 11:23:12;;;;;;;2.78;2.58;;;6.80;99.90;;;;;;5018495;28;20264;-80
2022/04/01 11:25:52;;;;;;;4.85;2.50;;;6.70;99.90;;;;;;5018578;28;20211;-79
2022/04/01 11:28:20;;;;;;;3.38;3.08;;;6.70;99.90;;;;;;5017811;28;20191;-79
2022/04/01 11:31:04;;;;;;;4.85;3.00;;;6.80;99.90;;;;;;5016661;28;20208;-80
2022/04/01 11:33:31;;;;;;;7.03;2.90;;;7.00;99.90;;;;;;5018269;28;20246;-81
2022/04/01 11:35:58;;;;;;;4.50;3.60;;;7.20;99.90;;;;;;5019425;28;20205;-79
2022/04/01 11:38:28;;;;;;;6.43;2.72;;;7.00;99.90;;;;;;5017289;28;20211;-79
2022/04/01 11:40:58;;;;;;;3.33;3.00;;;6.90;99.90;;;;;;5017896;28;20223;-79
2022/04/01 11:43:26;;;;;;;4.43;3.40;;;6.70;99.90;;;;;;5021813;28;20250;-79
2022/04/01 11:45:57;;;;;;;6.22;3.00;;;6.90;99.90;;;;;;5019911;28;20227;-79
2022/04/01 11:48:27;;;;;;;6.10;2.60;;;7.00;99.90;;;;;;5016352;28;20634;-79
2022/04/01 11:50:56;;;;;;;2.45;2.25;;;7.10;99.90;;;;;;5017864;28;20191;-79
2022/04/01 11:53:26;;;;;;;11.27;3.33;;;7.40;99.90;;;;;;5015860;28;20571;-80
2022/04/01 11:55:54;;;;;;;6.78;3.00;;;7.50;99.90;;;;;;5016714;28;20678;-80
2022/04/01 11:58:21;;;;;;;17.73;4.60;;;7.20;99.90;;;;;;5017890;28;20282;-78
2022/04/01 12:00:48;;;;;;;5.47;3.00;;;7.20;99.90;;;;;;5017893;28;20243;-79
2022/04/01 12:03:15;;;;;;;5.20;3.33;;;7.10;99.90;;;;;;5018377;28;20278;-81
2022/04/01 12:05:42;;;;;;;7.65;2.85;;;7.10;99.90;;;;;;5017610;28;20215;-80
2022/04/01 12:10:57;;;;;;;5.57;2.95;;;7.00;99.90;;;;;;5017692;28;20180;-79
2022/04/01 12:13:25;;;;;;;2.20;2.00;;;6.80;99.90;;;;;;5015756;28;20703;-79
2022/04/01 12:15:53;;;;;;;3.10;2.35;;;6.90;99.90;;;;;;5023114;28;20209;-78
2022/04/01 12:18:21;;;;;;;12.63;2.75;;;7.00;99.90;;;;;;5021879;28;20270;-78
2022/04/01 12:20:50;;;;;;;2.95;2.53;;;7.20;99.90;;;;;;5022504;28;20223;-79
2022/04/01 12:23:19;;;;;;;5.72;2.92;;;7.20;99.90;;;;;;5024910;28;20224;-79
2022/04/01 12:25:48;;;;;;;8.25;2.65;;;7.50;99.90;;;;;;5020000;28;20208;-79
2022/04/01 12:28:19;;;;;;;7.57;3.30;;;7.30;99.90;;;;;;5019666;28;20247;-80
2022/04/01 12:30:48;;;;;;;4.50;3.22;;;7.40;99.90;;;;;;5018900;28;20597;-79
2022/04/01 12:33:18;;;;;;;4.95;3.50;;;7.50;99.90;;;;;;5017508;28;20661;-79
2022/04/01 12:35:55;;;;;;;7.53;2.80;;;7.20;99.90;;;;;;5018273;28;20200;-80
2022/04/01 12:38:23;;;;;;;10.40;3.13;;;7.10;99.90;;;;;;5017437;28;20212;-80
2022/04/01 12:40:51;;;;;;;3.58;2.10;;;7.10;99.90;;;;;;5016913;28;20303;-79
2022/04/01 12:43:40;;;;;;;7.75;3.00;;;7.00;99.90;;;;;;5016533;28;20251;-78
2022/04/01 12:46:09;;;;;;;8.10;2.35;;;7.20;99.90;;;;;;5016339;28;20208;-79
2022/04/01 12:48:50;;;;;;;10.18;2.75;;;7.50;1.00;;;;;;5036988;23;20228;-85
2022/04/01 12:51:23;;;;;;;8.27;2.90;;;7.30;99.90;;;;;;5003174;28;20273;-86
2022/04/01 12:54:02;;;;;;;5.35;3.15;;;7.10;99.90;;;;;;5008561;28;20432;-86
2022/04/01 12:56:31;;;;;;;5.13;2.63;;;7.30;99.90;;;;;;5008151;28;20542;-88
2022/04/01 12:59:06;;;;;;;13.02;3.40;;;7.10;99.90;;;;;;5006833;28;20225;-84
2022/04/01 13:01:35;;;;;;;5.30;2.38;;;7.50;99.90;;;;;;5009156;28;20214;-85
2022/04/01 13:04:03;;;;;;;5.55;2.92;;;;;;;;;;5008284;28;20206;-86
2022/04/01 13:06:31;;;;;;;5.00;3.47;;;5.80;99.90;;;;;;5007338;28;20543;-84
2022/04/01 13:09:00;;;;;;;9.15;3.53;;;7.80;99.90;;;;;;5008705;28;20229;-83
2022/04/01 13:11:37;;;;;;;6.88;3.95;;;8.00;99.90;;;;;;5011770;28;20220;-84
2022/04/01 13:14:07;;;;;;;5.25;3.10;;;7.70;99.90;;;;;;5012040;28;20276;-85
2022/04/01 13:16:41;;;;;;;4.50;2.45;;;8.80;99.90;;;;;;5011905;28;20265;-86
2022/04/01 13:19:26;;;;;;;2.75;2.45;;;7.70;1.00;;;;;;5008644;28;20244;-85
2022/04/01 13:21:56;;;;;;;6.88;3.20;;;7.80;99.90;;;;;;5002699;28;20598;-86
2022/04/01 13:24:30;;;;;;;6.85;3.15;;;8.00;1.00;;;;;;5004363;28;20300;-86
2022/04/01 13:26:57;;;;;;;2.33;2.10;;;7.70;99.90;;;;;;5009990;28;20195;-85
2022/04/01 13:29:26;;;;;;;7.55;3.03;;;7.70;99.90;;;;;;5012896;28;20229;-85
2022/04/01 13:31:55;;;;;;;4.00;3.07;;;;;;;;;;5010163;28;20263;-85
2022/04/01 13:34:27;;;;;;;8.82;4.95;;;7.70;99.90;;;;;;5007857;28;20431;-85
2022/04/01 13:36:55;;;;;;;11.40;3.10;;;7.80;99.90;;;;;;5007540;28;20209;-86
2022/04/01 13:39:23;;;;;;;5.07;3.42;;;8.20;99.90;;;;;;5006141;28;20522;-86
2022/04/01 13:41:51;;;;;;;5.03;2.93;;;;;;;;;;5008565;28;20236;-83
2022/04/01 13:44:23;;;;;;;5.18;2.75;;;8.00;99.90;;;;;;5006612;28;20456;-81
2022/04/01 13:46:52;;;;;;;4.67;3.00;;;7.90;99.90;;;;;;5006861;28;20221;-83
2022/04/01 13:49:19;;;;;;;3.30;2.78;;;7.80;99.90;;;;;;5007239;28;20481;-82
2022/04/01 13:51:46;;;;;;;6.40;2.70;;;7.70;1.00;;;;;;5005190;28;20228;-84
2022/04/01 13:54:13;;;;;;;4.05;2.63;;;7.80;99.90;;;;;;5005394;28;20205;-85
2022/04/01 13:56:40;;;;;;;7.15;2.95;;;7.80;99.90;;;;;;5006938;28;20232;-85
2022/04/01 13:59:07;;;;;;;3.78;3.20;;;8.00;99.90;;;;;;5010550;28;20240;-85
2022/04/01 14:01:34;;;;;;;4.38;2.90;;;8.10;99.90;;;;;;5019604;28;20248;-85
2022/04/01 14:04:07;;;;;;;6.95;2.80;;;8.00;99.90;;;;;;5019623;28;20211;-84
2022/04/01 14:06:34;;;;;;;9.23;2.60;;;8.00;99.90;;;;;;5018194;28;20209;-85
2022/04/01 14:09:03;;;;;;;6.53;2.73;;;8.10;99.90;;;;;;5007868;28;20232;-85
2022/04/01 14:11:30;;;;;;;3.00;2.80;;;8.10;99.90;;;;;;5006277;28;20475;-85
2022/04/01 14:13:56;;;;;;;55.88;7.05;;;8.20;99.90;;;;;;5002819;28;20209;-84
2022/04/01 14:16:23;;;;;;;3.67;3.20;;;8.40;1.00;;;;;;5002475;28;20232;-86
2022/04/01 14:18:51;;;;;;;7.70;3.55;;;8.60;1.00;;;;;;5004139;28;20245;-84
2022/04/01 14:21:19;;;;;;;3.08;2.58;;;7.90;1.00;;;;;;5005635;28;20225;-85
2022/04/01 14:23:46;;;;;;;7.72;3.28;;;7.90;99.90;;;;;;5003333;28;20243;-85
2022/04/01 14:26:13;;;;;;;11.82;6.07;;;9.50;99.90;;;;;;5006373;28;20205;-84
2022/04/01 14:28:41;;;;;;;6.60;2.67;;;8.00;99.90;;;;;;5005220;28;20312;-86
2022/04/01 14:31:08;;;;;;;7.28;3.50;;;8.10;1.00;;;;;;5004193;28;20201;-87
2022/04/01 14:33:35;;;;;;;4.35;2.85;;;8.10;99.90;;;;;;5003285;28;20251;-85
2022/04/01 14:36:03;;;;;;;3.55;3.25;;;7.80;99.90;;;;;;5003226;28;20214;-86
2022/04/01 14:38:31;;;;;;;3.40;3.10;;;7.80;1.00;;;;;;5005093;28;20644;-86
2022/04/01 14:40:58;;;;;;;4.78;2.80;;;7.80;99.90;;;;;;5004603;28;20225;-86
2022/04/01 14:43:25;;;;;;;10.88;3.20;;;8.30;1.00;;;;;;5004689;28;20201;-85
2022/04/01 14:45:52;;;;;;;7.30;3.63;;;8.10;99.90;;;;;;5014526;28;20205;-85
2022/04/01 14:48:18;;;;;;;6.80;3.63;;;7.70;1.00;;;;;;5010292;28;20470;-85
2022/04/01 14:50:45;;;;;;;6.80;3.30;;;7.70;99.90;;;;;;5004082;28;20257;-84
2022/04/01 14:53:14;;;;;;;4.13;3.23;;;8.30;99.90;;;;;;5004910;28;20424;-85
2022/04/01 14:55:42;;;;;;;5.87;3.40;;;7.80;99.90;;;;;;5007961;28;20422;-84